createdAt,value
2022-12-18T00:01:32.457Z,-1.37
2022-12-18T00:04:01.090Z,-1.39
2022-12-18T00:06:30.214Z,-1.29
2022-12-18T00:08:58.672Z,-1.29
2022-12-18T00:11:28.901Z,-1.39
2022-12-18T00:13:58.342Z,-1.46
2022-12-18T00:16:27.237Z,-1.50
2022-12-18T00:18:56.757Z,-1.51
2022-12-18T00:21:23.741Z,-1.57
2022-12-18T00:23:51.036Z,-1.62
2022-12-18T00:26:31.632Z,-1.67
2022-12-18T00:29:05.713Z,-1.69
2022-12-18T00:31:33.311Z,-1.68
2022-12-18T00:34:01.810Z,-1.68
2022-12-18T00:36:31.608Z,-1.70
2022-12-18T00:38:59.698Z,-1.66
2022-12-18T00:41:46.571Z,-1.71
2022-12-18T00:44:15.550Z,-1.75
2022-12-18T00:46:43.755Z,-1.78
2022-12-18T00:49:10.949Z,-1.78
2022-12-18T00:51:38.028Z,-1.74
2022-12-18T00:54:05.979Z,-1.73
2022-12-18T00:56:32.817Z,-1.67
2022-12-18T00:58:59.747Z,-1.64
2022-12-18T01:01:26.751Z,-1.79
2022-12-18T01:03:53.822Z,-1.81
2022-12-18T01:06:21.117Z,-1.89
2022-12-18T01:08:48.272Z,-1.84
2022-12-18T01:11:19.033Z,-1.77
2022-12-18T01:13:46.097Z,-1.74
2022-12-18T01:16:17.778Z,-1.79
2022-12-18T01:18:44.964Z,-1.77
2022-12-18T01:21:16.019Z,-1.70
2022-12-18T01:23:45.779Z,-1.74
2022-12-18T01:26:15.718Z,-1.74
2022-12-18T01:28:44.875Z,-1.79
2022-12-18T01:31:31.528Z,-1.85
2022-12-18T01:33:59.106Z,-1.83
2022-12-18T01:36:29.750Z,-1.91
2022-12-18T01:38:57.699Z,-1.79
2022-12-18T01:41:27.707Z,-1.79
2022-12-18T01:43:58.531Z,-1.75
2022-12-18T01:46:27.488Z,-1.79
2022-12-18T01:49:02.144Z,-1.80
2022-12-18T01:51:31.552Z,-1.74
2022-12-18T01:54:01.623Z,-1.94
2022-12-18T01:56:28.640Z,-1.94
2022-12-18T01:59:01.780Z,-1.91
2022-12-18T02:01:31.728Z,-1.96
2022-12-18T02:04:23.753Z,-1.98
2022-12-18T02:07:20.117Z,-2.09
2022-12-18T02:10:03.400Z,-2.09
2022-12-18T02:12:42.287Z,-2.07
2022-12-18T02:15:20.836Z,-2.13
2022-12-18T02:18:08.782Z,-2.08
2022-12-18T02:20:47.555Z,-2.14
2022-12-18T02:23:33.209Z,-2.09
2022-12-18T02:26:00.141Z,-2.16
2022-12-18T02:28:31.977Z,-2.12
2022-12-18T02:31:06.123Z,-2.15
2022-12-18T02:33:36.430Z,-2.20
2022-12-18T02:36:05.820Z,-2.27
2022-12-18T02:38:35.892Z,-2.34
2022-12-18T02:41:09.776Z,-2.40
2022-12-18T02:43:38.092Z,-2.42
2022-12-18T02:46:28.608Z,-2.47
2022-12-18T02:49:06.907Z,-2.52
2022-12-18T02:51:53.909Z,-2.51
2022-12-18T02:54:53.066Z,-2.61
2022-12-18T02:58:20.559Z,-2.54
2022-12-18T03:01:09.911Z,-2.57
2022-12-18T03:03:48.252Z,-2.51
2022-12-18T03:06:17.971Z,-2.54
2022-12-18T03:08:50.886Z,-2.53
2022-12-18T03:11:38.291Z,-2.56
2022-12-18T03:14:08.583Z,-2.54
2022-12-18T03:16:38.333Z,-2.51
2022-12-18T03:19:12.348Z,-2.48
2022-12-18T03:21:48.541Z,-2.61
2022-12-18T03:24:19.822Z,-2.51
2022-12-18T03:26:53.263Z,-2.61
2022-12-18T03:29:35.010Z,-2.58
2022-12-18T03:32:16.315Z,-2.62
2022-12-18T03:34:46.888Z,-2.63
2022-12-18T03:37:16.112Z,-2.68
2022-12-18T03:39:43.230Z,-2.72
2022-12-18T03:42:22.695Z,-2.65
2022-12-18T03:44:59.422Z,-2.78
2022-12-18T03:47:45.797Z,-2.78
2022-12-18T03:50:18.421Z,-2.86
2022-12-18T03:52:55.196Z,-2.86
2022-12-18T03:55:25.804Z,-2.78
2022-12-18T03:58:00.110Z,-2.83
2022-12-18T04:00:34.288Z,-2.89
2022-12-18T04:03:09.782Z,-2.86
2022-12-18T04:05:49.861Z,-2.86
2022-12-18T04:08:19.113Z,-2.93
2022-12-18T04:10:53.716Z,-2.87
2022-12-18T04:13:40.205Z,-2.89
2022-12-18T04:16:13.487Z,-2.91
2022-12-18T04:18:43.244Z,-2.95
2022-12-18T04:21:11.451Z,-3.00
2022-12-18T04:23:38.931Z,-3.00
2022-12-18T04:26:06.743Z,-2.95
2022-12-18T04:28:46.317Z,-2.97
2022-12-18T04:31:14.370Z,-2.93
2022-12-18T04:33:41.861Z,-2.99
2022-12-18T04:36:10.171Z,-2.97
2022-12-18T04:38:38.145Z,-3.09
2022-12-18T04:41:09.332Z,-3.02
2022-12-18T04:43:37.464Z,-3.01
2022-12-18T04:46:08.944Z,-2.93
2022-12-18T04:48:37.107Z,-3.11
2022-12-18T04:51:05.407Z,-3.00
2022-12-18T04:53:32.756Z,-3.09
2022-12-18T04:56:14.428Z,-3.08
2022-12-18T04:58:43.243Z,-3.15
2022-12-18T05:01:12.030Z,-3.17
2022-12-18T05:03:40.372Z,-3.21
2022-12-18T05:06:08.646Z,-3.22
2022-12-18T05:08:36.128Z,-3.24
2022-12-18T05:11:09.557Z,-3.21
2022-12-18T05:13:39.684Z,-3.20
2022-12-18T05:16:08.265Z,-3.26
2022-12-18T05:18:36.011Z,-3.22
2022-12-18T05:21:03.987Z,-3.26
2022-12-18T05:23:31.441Z,-3.15
2022-12-18T05:26:01.388Z,-3.13
2022-12-18T05:28:31.042Z,-3.12
2022-12-18T05:31:00.608Z,-3.16
2022-12-18T05:33:31.864Z,-3.23
2022-12-18T05:36:02.188Z,-3.19
2022-12-18T05:38:32.228Z,-3.24
2022-12-18T05:41:00.512Z,-3.19
2022-12-18T05:43:28.999Z,-3.20
2022-12-18T05:45:58.289Z,-3.22
2022-12-18T05:48:26.655Z,-3.27
2022-12-18T05:50:54.123Z,-3.30
2022-12-18T05:53:22.646Z,-3.28
2022-12-18T05:55:50.849Z,-3.26
2022-12-18T05:58:21.992Z,-3.33
2022-12-18T06:00:49.861Z,-3.28
2022-12-18T06:03:18.057Z,-3.24
2022-12-18T06:05:47.901Z,-3.21
2022-12-18T06:08:16.150Z,-3.24
2022-12-18T06:10:43.842Z,-3.17
2022-12-18T06:13:11.475Z,-3.21
2022-12-18T06:15:39.686Z,-3.28
2022-12-18T06:18:08.852Z,-3.28
2022-12-18T06:20:37.771Z,-3.30
2022-12-18T06:23:06.314Z,-3.29
2022-12-18T06:25:34.558Z,-3.23
2022-12-18T06:28:02.694Z,-3.39
2022-12-18T06:30:30.680Z,-3.28
2022-12-18T06:32:58.365Z,-3.23
2022-12-18T06:35:27.605Z,-3.20
2022-12-18T06:37:55.373Z,-3.22
2022-12-18T06:40:23.320Z,-3.26
2022-12-18T06:42:52.781Z,-3.27
2022-12-18T06:45:21.218Z,-3.32
2022-12-18T06:47:49.623Z,-3.26
2022-12-18T06:50:18.084Z,-3.32
2022-12-18T06:52:46.275Z,-3.29
2022-12-18T06:55:15.079Z,-3.32
2022-12-18T06:57:43.443Z,-3.42
2022-12-18T07:00:14.895Z,-3.43
2022-12-18T07:02:43.206Z,-3.36
2022-12-18T07:05:12.276Z,-3.39
2022-12-18T07:07:41.769Z,-3.33
2022-12-18T07:10:11.021Z,-3.32
2022-12-18T07:12:39.399Z,-3.33
2022-12-18T07:15:08.777Z,-3.34
2022-12-18T07:17:37.795Z,-3.37
2022-12-18T07:20:06.756Z,-3.40
2022-12-18T07:22:36.603Z,-3.34
2022-12-18T07:25:04.778Z,-3.38
2022-12-18T07:27:32.932Z,-3.27
2022-12-18T07:30:01.682Z,-3.14
2022-12-18T07:32:30.268Z,-3.16
2022-12-18T07:34:58.147Z,-3.18
2022-12-18T07:37:26.075Z,-3.19
2022-12-18T07:39:54.359Z,-3.11
2022-12-18T07:42:34.216Z,-3.06
2022-12-18T07:45:02.906Z,-3.08
2022-12-18T07:47:31.454Z,-3.15
2022-12-18T07:49:59.471Z,-3.19
2022-12-18T07:52:27.801Z,-3.16
2022-12-18T07:54:55.410Z,-3.15
2022-12-18T07:57:48.819Z,-3.19
2022-12-18T08:00:11.790Z,-3.20
2022-12-18T08:02:42.311Z,-3.09
2022-12-18T08:05:10.393Z,-3.13
2022-12-18T08:07:39.498Z,-3.14
2022-12-18T08:10:08.667Z,-3.12
2022-12-18T08:12:36.839Z,-3.14
2022-12-18T08:15:06.180Z,-3.21
2022-12-18T08:17:34.387Z,-3.31
2022-12-18T08:20:04.066Z,-3.26
2022-12-18T08:22:31.768Z,-3.26
2022-12-18T08:24:59.435Z,-3.25
2022-12-18T08:27:29.657Z,-3.25
2022-12-18T08:29:58.282Z,-3.21
2022-12-18T08:32:28.747Z,-3.20
2022-12-18T08:34:57.505Z,-3.21
2022-12-18T08:37:25.513Z,-3.25
2022-12-18T08:39:53.468Z,-3.27
2022-12-18T08:42:39.628Z,-3.22
2022-12-18T08:45:07.727Z,-3.31
2022-12-18T08:47:36.330Z,-3.35
2022-12-18T08:50:05.610Z,-3.38
2022-12-18T08:52:34.727Z,-3.35
2022-12-18T08:55:02.358Z,-3.36
2022-12-18T08:57:29.877Z,-3.31
2022-12-18T08:59:58.040Z,-3.38
2022-12-18T09:02:26.223Z,-3.37
2022-12-18T09:04:57.754Z,-3.38
2022-12-18T09:07:26.261Z,-3.42
2022-12-18T09:09:54.842Z,-3.44
2022-12-18T09:12:23.450Z,-3.42
2022-12-18T09:15:01.040Z,-3.44
2022-12-18T09:17:30.318Z,-3.37
2022-12-18T09:19:58.575Z,-3.29
2022-12-18T09:22:26.435Z,-3.23
2022-12-18T09:24:54.018Z,-3.17
2022-12-18T09:27:21.387Z,-3.13
2022-12-18T09:29:48.808Z,-3.09
2022-12-18T09:32:22.200Z,-2.93
2022-12-18T09:34:51.040Z,-3.07
2022-12-18T09:37:19.014Z,-2.94
2022-12-18T09:39:46.540Z,-3.00
2022-12-18T09:42:23.794Z,-3.09
2022-12-18T09:44:56.021Z,-3.07
2022-12-18T09:47:35.884Z,-2.98
2022-12-18T09:50:14.261Z,-2.97
2022-12-18T09:52:49.748Z,-3.03
2022-12-18T09:55:47.446Z,-3.02
2022-12-18T09:58:30.329Z,-2.90
2022-12-18T10:00:57.958Z,-2.86
2022-12-18T10:03:25.532Z,-2.88
2022-12-18T10:06:05.987Z,-2.89
2022-12-18T10:08:57.058Z,-2.90
2022-12-18T10:11:41.491Z,-2.85
2022-12-18T10:14:21.250Z,-2.84
2022-12-18T10:16:51.453Z,-2.78
2022-12-18T10:19:54.984Z,-2.70
2022-12-18T10:22:37.773Z,-2.66
2022-12-18T10:25:20.968Z,-2.64
2022-12-18T10:27:49.711Z,-2.63
2022-12-18T10:30:20.594Z,-2.72
2022-12-18T10:32:48.699Z,-2.78
2022-12-18T10:35:26.077Z,-2.78
2022-12-18T10:38:27.404Z,-2.86
2022-12-18T10:41:02.791Z,-2.85
2022-12-18T10:43:36.835Z,-2.87
2022-12-18T10:46:17.243Z,-2.82
2022-12-18T10:48:59.218Z,-2.71
2022-12-18T10:51:37.462Z,-2.83
2022-12-18T10:54:35.802Z,-2.93
2022-12-18T10:57:40.389Z,-2.86
2022-12-18T11:00:23.159Z,-2.94
2022-12-18T11:02:52.170Z,-2.88
2022-12-18T11:05:33.275Z,-2.94
2022-12-18T11:08:02.837Z,-2.97
2022-12-18T11:10:35.026Z,-2.82
2022-12-18T11:13:35.281Z,-2.70
2022-12-18T11:16:04.072Z,-2.88
2022-12-18T11:18:36.133Z,-2.82
2022-12-18T11:21:15.485Z,-2.89
2022-12-18T11:23:53.325Z,-2.87
2022-12-18T11:26:23.105Z,-2.83
2022-12-18T11:29:12.563Z,-2.82
2022-12-18T11:31:40.461Z,-2.77
2022-12-18T11:34:31.955Z,-2.66
2022-12-18T11:37:02.631Z,-2.75
2022-12-18T11:39:41.804Z,-2.77
2022-12-18T11:42:21.567Z,-2.74
2022-12-18T11:45:00.003Z,-2.89
2022-12-18T11:47:42.968Z,-2.68
2022-12-18T11:50:17.708Z,-2.69
2022-12-18T11:52:45.109Z,-2.73
2022-12-18T11:55:32.576Z,-2.71
2022-12-18T11:58:19.436Z,-2.96
2022-12-18T12:01:08.224Z,-2.87
2022-12-18T12:04:00.875Z,-2.86
2022-12-18T12:06:36.910Z,-2.78
2022-12-18T12:09:10.302Z,-2.89
2022-12-18T12:11:46.271Z,-3.02
2022-12-18T12:14:30.486Z,-3.04
2022-12-18T12:17:12.209Z,-3.23
2022-12-18T12:19:46.147Z,-3.26
2022-12-18T12:22:32.365Z,-3.26
2022-12-18T12:25:09.150Z,-3.26
2022-12-18T12:27:58.686Z,-3.25
2022-12-18T12:30:45.315Z,-3.33
2022-12-18T12:33:42.526Z,-3.40
2022-12-18T12:36:35.442Z,-3.37
2022-12-18T12:39:09.912Z,-3.42
2022-12-18T12:41:58.624Z,-3.39
2022-12-18T12:44:35.654Z,-3.45
2022-12-18T12:47:18.759Z,-3.49
2022-12-18T12:49:51.573Z,-3.53
2022-12-18T12:52:26.555Z,-3.43
2022-12-18T12:54:55.031Z,-3.60
2022-12-18T12:57:35.357Z,-3.49
2022-12-18T13:00:16.214Z,-3.58
2022-12-18T13:02:54.835Z,-3.59
2022-12-18T13:05:55.615Z,-3.54
2022-12-18T13:08:47.253Z,-3.65
2022-12-18T13:11:48.919Z,-3.66
2022-12-18T13:14:30.262Z,-3.62
2022-12-18T13:17:22.146Z,-3.53
2022-12-18T13:20:06.445Z,-3.46
2022-12-18T13:22:49.098Z,-3.54
2022-12-18T13:25:30.223Z,-3.58
2022-12-18T13:28:25.762Z,-3.61
2022-12-18T13:30:58.372Z,-3.63
2022-12-18T13:33:31.888Z,-3.67
2022-12-18T13:36:14.217Z,-3.75
2022-12-18T13:38:43.807Z,-3.83
2022-12-18T13:41:15.230Z,-3.94
2022-12-18T13:43:47.299Z,-3.85
2022-12-18T13:46:29.214Z,-3.79
2022-12-18T13:49:05.903Z,-3.77
2022-12-18T13:51:35.852Z,-3.77
2022-12-18T13:54:41.267Z,-3.81
2022-12-18T13:57:32.534Z,-3.87
2022-12-18T14:00:32.545Z,-3.98
2022-12-18T14:03:00.993Z,-3.95
2022-12-18T14:05:30.975Z,-3.91
2022-12-18T14:08:06.420Z,-3.99
2022-12-18T14:10:49.028Z,-3.99
2022-12-18T14:13:36.036Z,-4.07
2022-12-18T14:16:06.820Z,-4.07
2022-12-18T14:18:45.146Z,-4.05
2022-12-18T14:21:23.936Z,-4.12
2022-12-18T14:24:08.090Z,-4.00
2022-12-18T14:26:35.945Z,-4.10
2022-12-18T14:29:30.154Z,-4.20
2022-12-18T14:32:18.203Z,-4.14
2022-12-18T14:34:55.644Z,-4.23
2022-12-18T14:37:26.654Z,-4.21
2022-12-18T14:40:11.037Z,-4.20
2022-12-18T14:42:39.854Z,-4.24
2022-12-18T14:45:42.535Z,-4.19
2022-12-18T14:48:13.347Z,-4.34
2022-12-18T14:50:43.397Z,-4.40
2022-12-18T14:53:24.135Z,-4.35
2022-12-18T14:55:52.154Z,-4.44
2022-12-18T14:58:20.077Z,-4.44
2022-12-18T15:00:47.431Z,-4.46
2022-12-18T15:03:21.472Z,-4.43
2022-12-18T15:05:49.367Z,-4.42
2022-12-18T15:08:38.621Z,-4.46
2022-12-18T15:11:28.433Z,-4.67
2022-12-18T15:13:55.351Z,-4.63
2022-12-18T15:16:22.483Z,-4.62
2022-12-18T15:18:50.510Z,-4.64
2022-12-18T15:21:21.617Z,-4.64
2022-12-18T15:23:52.381Z,-4.68
2022-12-18T15:26:21.736Z,-4.70
2022-12-18T15:28:50.855Z,-4.64
2022-12-18T15:31:18.431Z,-4.64
2022-12-18T15:33:54.139Z,-4.65
2022-12-18T15:36:26.385Z,-4.76
2022-12-18T15:38:57.882Z,-4.76
2022-12-18T15:41:37.425Z,-4.79
2022-12-18T15:44:24.280Z,-4.81
2022-12-18T15:46:51.317Z,-4.73
2022-12-18T15:49:18.574Z,-4.78
2022-12-18T15:51:50.018Z,-4.83
2022-12-18T15:54:17.897Z,-4.73
2022-12-18T15:57:03.706Z,-4.74
2022-12-18T15:59:31.370Z,-4.71
2022-12-18T16:01:58.966Z,-4.74
2022-12-18T16:04:27.021Z,-4.88
2022-12-18T16:09:41.167Z,-4.84
2022-12-18T16:12:16.753Z,-4.79
2022-12-18T16:14:43.849Z,-4.74
2022-12-18T16:17:12.777Z,-4.85
2022-12-18T16:19:39.880Z,-4.88
2022-12-18T16:22:10.112Z,-4.85
2022-12-18T16:24:37.454Z,-4.99
2022-12-18T16:27:04.605Z,-5.00
2022-12-18T16:29:31.465Z,-5.03
2022-12-18T16:31:59.818Z,-5.03
2022-12-18T16:34:29.713Z,-5.06
2022-12-18T16:37:05.618Z,-5.12
2022-12-18T16:39:38.081Z,-5.06
2022-12-18T16:42:08.418Z,-5.09
2022-12-18T16:44:35.854Z,-5.12
2022-12-18T16:47:04.089Z,-5.18
2022-12-18T16:49:32.312Z,-5.22
2022-12-18T16:51:59.454Z,-5.23
2022-12-18T16:54:26.537Z,-5.17
2022-12-18T16:56:54.451Z,-5.17
2022-12-18T16:59:21.496Z,-5.26
2022-12-18T17:01:49.196Z,-5.25
2022-12-18T17:04:17.664Z,-5.27
2022-12-18T17:06:51.823Z,-5.26
2022-12-18T17:09:26.609Z,-5.29
2022-12-18T17:11:54.994Z,-5.24
2022-12-18T17:14:24.265Z,-5.28
2022-12-18T17:17:19.218Z,-5.35
2022-12-18T17:19:39.584Z,-5.42
2022-12-18T17:22:08.373Z,-5.55
2022-12-18T17:24:36.713Z,-5.57
2022-12-18T17:27:04.787Z,-5.58
2022-12-18T17:29:31.764Z,-5.61
2022-12-18T17:32:00.516Z,-5.76
2022-12-18T17:34:28.557Z,-5.80
2022-12-18T17:36:57.007Z,-5.78
2022-12-18T17:39:24.047Z,-5.87
2022-12-18T17:41:51.395Z,-5.75
2022-12-18T17:44:19.319Z,-5.89
2022-12-18T17:46:49.115Z,-5.89
2022-12-18T17:49:16.248Z,-5.85
2022-12-18T17:51:43.399Z,-5.94
2022-12-18T17:54:11.152Z,-5.85
2022-12-18T17:56:38.726Z,-5.85
2022-12-18T17:59:07.012Z,-5.90
2022-12-18T18:01:37.302Z,-5.95
2022-12-18T18:04:08.409Z,-5.90
2022-12-18T18:06:37.241Z,-5.92
2022-12-18T18:09:08.184Z,-5.90
2022-12-18T18:12:04.392Z,-5.95
2022-12-18T18:14:32.203Z,-5.91
2022-12-18T18:17:03.898Z,-5.95
2022-12-18T18:19:32.361Z,-5.85
2022-12-18T18:21:59.252Z,-5.83
2022-12-18T18:24:26.574Z,-5.89
2022-12-18T18:26:58.926Z,-5.92
2022-12-18T18:29:27.875Z,-5.94
2022-12-18T18:31:57.019Z,-5.83
2022-12-18T18:34:26.794Z,-5.89
2022-12-18T18:36:54.417Z,-5.86
2022-12-18T18:39:21.617Z,-5.88
2022-12-18T18:41:48.930Z,-5.83
2022-12-18T18:44:18.088Z,-5.90
2022-12-18T18:46:45.721Z,-5.88
2022-12-18T18:49:14.217Z,-5.87
2022-12-18T18:51:42.226Z,-5.86
2022-12-18T18:54:10.188Z,-5.88
2022-12-18T18:57:11.327Z,-5.86
2022-12-18T18:59:30.367Z,-5.93
2022-12-18T19:02:00.608Z,-5.90
2022-12-18T19:04:31.856Z,-5.89
2022-12-18T19:06:58.940Z,-5.88
2022-12-18T19:09:26.473Z,-5.84
2022-12-18T19:12:12.451Z,-5.83
2022-12-18T19:14:39.432Z,-5.90
2022-12-18T19:17:07.091Z,-5.88
2022-12-18T19:19:33.897Z,-5.85
2022-12-18T19:22:01.443Z,-5.81
2022-12-18T19:24:28.485Z,-5.83
2022-12-18T19:26:58.187Z,-5.77
2022-12-18T19:29:25.421Z,-5.73
2022-12-18T19:31:52.392Z,-5.73
2022-12-18T19:34:19.324Z,-5.67
2022-12-18T19:36:46.650Z,-5.73
2022-12-18T19:39:16.670Z,-5.75
2022-12-18T19:41:44.543Z,-5.73
2022-12-18T19:44:13.854Z,-5.71
2022-12-18T19:46:42.989Z,-5.72
2022-12-18T19:49:10.907Z,-5.70
2022-12-18T19:51:38.529Z,-5.81
2022-12-18T19:54:05.796Z,-5.82
2022-12-18T19:56:34.544Z,-5.82
2022-12-18T19:59:03.039Z,-5.88
2022-12-18T20:01:31.025Z,-5.75
2022-12-18T20:03:59.009Z,-5.80
2022-12-18T20:06:28.761Z,-5.86
2022-12-18T20:09:00.199Z,-5.83
2022-12-18T20:11:29.708Z,-5.78
2022-12-18T20:13:58.074Z,-5.81
2022-12-18T20:16:25.450Z,-5.84
2022-12-18T20:18:55.402Z,-5.93
2022-12-18T20:21:23.032Z,-5.91
2022-12-18T20:23:50.456Z,-5.97
2022-12-18T20:26:17.567Z,-5.87
2022-12-18T20:28:44.619Z,-5.99
2022-12-18T20:31:13.695Z,-5.98
2022-12-18T20:33:47.512Z,-5.88
2022-12-18T20:36:21.362Z,-5.95
2022-12-18T20:38:54.695Z,-5.92
2022-12-18T20:41:26.226Z,-5.98
2022-12-18T20:44:01.972Z,-5.98
2022-12-18T20:46:28.973Z,-5.95
2022-12-18T20:48:56.159Z,-6.02
2022-12-18T20:51:23.148Z,-6.04
2022-12-18T20:53:49.939Z,-6.05
2022-12-18T20:56:21.161Z,-6.02
2022-12-18T20:58:49.752Z,-6.05
2022-12-18T21:01:20.176Z,-6.06
2022-12-18T21:03:47.930Z,-6.06
2022-12-18T21:06:16.366Z,-6.11
2022-12-18T21:08:43.978Z,-6.09
2022-12-18T21:11:39.754Z,-6.15
2022-12-18T21:14:17.235Z,-6.11
2022-12-18T21:16:45.299Z,-6.21
2022-12-18T21:19:16.377Z,-6.30
2022-12-18T21:21:44.072Z,-6.36
2022-12-18T21:24:11.269Z,-6.38
2022-12-18T21:26:45.511Z,-6.42
2022-12-18T21:29:19.161Z,-6.43
2022-12-18T21:31:46.868Z,-6.42
2022-12-18T21:34:34.297Z,-6.44
2022-12-18T21:37:02.006Z,-6.55
2022-12-18T21:39:30.851Z,-6.63
2022-12-18T21:42:17.050Z,-6.56
2022-12-18T21:44:46.928Z,-6.63
2022-12-18T21:47:22.708Z,-6.67
2022-12-18T21:49:53.841Z,-6.66
2022-12-18T21:52:28.329Z,-6.73
2022-12-18T21:55:08.052Z,-6.82
2022-12-18T21:57:37.068Z,-6.88
2022-12-18T22:00:05.255Z,-6.83
2022-12-18T22:02:39.197Z,-6.96
2022-12-18T22:05:06.840Z,-6.97
2022-12-18T22:07:34.079Z,-7.04
2022-12-18T22:10:02.019Z,-7.07
2022-12-18T22:12:35.820Z,-7.19
2022-12-18T22:15:20.310Z,-7.24
2022-12-18T22:17:49.335Z,-7.33
2022-12-18T22:20:16.229Z,-7.43
2022-12-18T22:22:43.142Z,-7.44
2022-12-18T22:25:10.796Z,-7.45
2022-12-18T22:27:37.853Z,-7.48
2022-12-18T22:30:05.753Z,-7.58
2022-12-18T22:32:33.997Z,-7.52
2022-12-18T22:35:07.918Z,-7.64
2022-12-18T22:37:36.789Z,-7.64
2022-12-18T22:40:06.062Z,-7.74
2022-12-18T22:42:34.593Z,-7.73
2022-12-18T22:45:01.535Z,-7.83
2022-12-18T22:47:30.504Z,-7.90
2022-12-18T22:49:58.239Z,-7.92
2022-12-18T22:52:25.629Z,-7.94
2022-12-18T22:54:53.865Z,-7.93
2022-12-18T22:57:22.816Z,-7.94
2022-12-18T22:59:51.067Z,-8.00
2022-12-18T23:02:19.192Z,-8.04
2022-12-18T23:04:47.896Z,-8.13
2022-12-18T23:07:16.236Z,-8.02
2022-12-18T23:09:43.083Z,-7.91
2022-12-18T23:12:19.608Z,-7.76
2022-12-18T23:14:47.412Z,-7.65
2022-12-18T23:17:14.534Z,-7.58
2022-12-18T23:19:47.123Z,-7.50
2022-12-18T23:22:16.112Z,-7.35
2022-12-18T23:24:42.972Z,-7.26
2022-12-18T23:27:11.983Z,-7.12
2022-12-18T23:29:39.715Z,-7.05
2022-12-18T23:32:07.006Z,-6.94
2022-12-18T23:34:33.773Z,-6.84
2022-12-18T23:37:01.241Z,-6.79
2022-12-18T23:39:30.148Z,-6.71
2022-12-18T23:42:01.536Z,-6.61
2022-12-18T23:44:29.061Z,-6.64
2022-12-18T23:46:56.049Z,-6.51
2022-12-18T23:49:23.436Z,-6.49
2022-12-18T23:51:50.539Z,-6.40
2022-12-18T23:54:17.607Z,-6.39
2022-12-18T23:56:45.792Z,-6.30
2022-12-18T23:59:18.473Z,-6.23
